JAL671 RJFO-RJTT
Flight info
| Callsign | JAL671 |
|---|---|
| Flight time | 1h 2m |
| Altitude | 37000 |
| Route | FUSHA2/FIATO FIATO Y61 KTE Y33 SHOOT Y71 XAC |
| Aircraft | B738/M-SDE3FGHRWY/LB1 |
Departure
| Time | 2026-05-06 12:06 |
|---|---|
| Airport | Oita Airport (RJFO) |
Arrival
| Time | 2026-05-06 13:08 |
|---|---|
| Airport | Tokyo Haneda International Airport (RJTT) |
| Time | Latitude | Longitude | Altitude | Speed | Heading |
|---|---|---|---|---|---|
| 2026-05-06 11:49 | 33.47706 | 131.73351 | 28 ft | 0 kts | 270° |
| 2026-05-06 11:56 | 33.47706 | 131.73357 | 28 ft | 2 kts | 270° |
| 2026-05-06 11:57 | 33.47706 | 131.73375 | 28 ft | 2 kts | 269° |
| 2026-05-06 11:57 | 33.47706 | 131.73393 | 28 ft | 2 kts | 270° |
| 2026-05-06 11:57 | 33.47706 | 131.73410 | 28 ft | 2 kts | 269° |
| 2026-05-06 11:57 | 33.47706 | 131.73428 | 28 ft | 2 kts | 269° |
| 2026-05-06 11:58 | 33.47707 | 131.73447 | 28 ft | 2 kts | 270° |
| 2026-05-06 11:58 | 33.47707 | 131.73465 | 28 ft | 2 kts | 269° |
| 2026-05-06 11:58 | 33.47707 | 131.73482 | 28 ft | 2 kts | 269° |
| 2026-05-06 11:58 | 33.47707 | 131.73494 | 28 ft | 2 kts | 260° |
| 2026-05-06 11:59 | 33.47715 | 131.73508 | 28 ft | 2 kts | 210° |
| 2026-05-06 11:59 | 33.47724 | 131.73512 | 28 ft | 0 kts | 182° |
| 2026-05-06 11:59 | 33.47731 | 131.73512 | 28 ft | 0 kts | 180° |
| 2026-05-06 12:01 | 33.47715 | 131.73512 | 28 ft | 4 kts | 181° |
| 2026-05-06 12:02 | 33.47672 | 131.73511 | 28 ft | 7 kts | 181° |
| 2026-05-06 12:02 | 33.47606 | 131.73509 | 28 ft | 11 kts | 181° |
| 2026-05-06 12:02 | 33.47514 | 131.73508 | 28 ft | 14 kts | 179° |
| 2026-05-06 12:02 | 33.47400 | 131.73506 | 28 ft | 18 kts | 181° |
| 2026-05-06 12:03 | 33.47262 | 131.73506 | 28 ft | 21 kts | 180° |
| 2026-05-06 12:03 | 33.47100 | 131.73506 | 28 ft | 24 kts | 179° |
| 2026-05-06 12:03 | 33.46943 | 131.73506 | 28 ft | 26 kts | 180° |
| 2026-05-06 12:03 | 33.46762 | 131.73503 | 28 ft | 25 kts | 180° |
| 2026-05-06 12:04 | 33.46636 | 131.73514 | 28 ft | 12 kts | 151° |
| 2026-05-06 12:04 | 33.46609 | 131.73587 | 28 ft | 9 kts | 90° |
| 2026-05-06 12:04 | 33.46613 | 131.73662 | 28 ft | 8 kts | 70° |
| 2026-05-06 12:04 | 33.46653 | 131.73700 | 28 ft | 6 kts | 11° |
| 2026-05-06 12:05 | 33.46690 | 131.73697 | 28 ft | 4 kts | 1° |
| 2026-05-06 12:05 | 33.46792 | 131.73700 | 28 ft | 43 kts | 1° |
| 2026-05-06 12:05 | 33.47396 | 131.73711 | 28 ft | 127 kts | 2° |
| 2026-05-06 12:05 | 33.48515 | 131.73737 | 77 ft | 188 kts | 2° |
| 2026-05-06 12:06 | 33.49836 | 131.73737 | 847 ft | 196 kts | 4° |
| 2026-05-06 12:06 | 33.51098 | 131.74310 | 1781 ft | 196 kts | 40° |
| 2026-05-06 12:06 | 33.51982 | 131.75514 | 2529 ft | 198 kts | 63° |
| 2026-05-06 12:06 | 33.52444 | 131.77026 | 3332 ft | 198 kts | 82° |
| 2026-05-06 12:07 | 33.52412 | 131.78673 | 3996 ft | 206 kts | 104° |
| 2026-05-06 12:07 | 33.51860 | 131.80383 | 4184 ft | 236 kts | 121° |
| 2026-05-06 12:07 | 33.50853 | 131.82066 | 4232 ft | 263 kts | 130° |
| 2026-05-06 12:07 | 33.49663 | 131.83751 | 5090 ft | 270 kts | 131° |
| 2026-05-06 12:08 | 33.48442 | 131.85489 | 5954 ft | 277 kts | 130° |
| 2026-05-06 12:08 | 33.47211 | 131.87286 | 6819 ft | 283 kts | 129° |
| 2026-05-06 12:08 | 33.45985 | 131.89107 | 7706 ft | 288 kts | 129° |
| 2026-05-06 12:08 | 33.44735 | 131.90971 | 8633 ft | 290 kts | 129° |
| 2026-05-06 12:09 | 33.43465 | 131.92862 | 9492 ft | 294 kts | 129° |
| 2026-05-06 12:09 | 33.42196 | 131.94748 | 10286 ft | 300 kts | 129° |
| 2026-05-06 12:09 | 33.40844 | 131.96756 | 10795 ft | 316 kts | 130° |
| 2026-05-06 12:09 | 33.39432 | 131.98845 | 11264 ft | 332 kts | 129° |
| 2026-05-06 12:10 | 33.37979 | 132.01092 | 11723 ft | 349 kts | 123° |
| 2026-05-06 12:10 | 33.37077 | 132.03832 | 12093 ft | 367 kts | 99° |
| 2026-05-06 12:10 | 33.37201 | 132.06915 | 12510 ft | 381 kts | 75° |
| 2026-05-06 12:10 | 33.38296 | 132.09810 | 12858 ft | 394 kts | 58° |
| 2026-05-06 12:11 | 33.39840 | 132.12582 | 13316 ft | 405 kts | 53° |
| 2026-05-06 12:11 | 33.41501 | 132.15318 | 14093 ft | 406 kts | 52° |
| 2026-05-06 12:11 | 33.43154 | 132.18025 | 14840 ft | 408 kts | 52° |
| 2026-05-06 12:11 | 33.44826 | 132.20815 | 15521 ft | 411 kts | 52° |
| 2026-05-06 12:12 | 33.46464 | 132.23610 | 16212 ft | 413 kts | 53° |
| 2026-05-06 12:12 | 33.48106 | 132.26460 | 16853 ft | 416 kts | 53° |
| 2026-05-06 12:12 | 33.49722 | 132.29295 | 17438 ft | 420 kts | 53° |
| 2026-05-06 12:12 | 33.51366 | 132.32193 | 18030 ft | 423 kts | 53° |
| 2026-05-06 12:13 | 33.53025 | 132.35126 | 18506 ft | 429 kts | 54° |
| 2026-05-06 12:13 | 33.54698 | 132.38083 | 19060 ft | 433 kts | 53° |
| 2026-05-06 12:13 | 33.56406 | 132.41097 | 19605 ft | 436 kts | 53° |
| 2026-05-06 12:13 | 33.58110 | 132.44104 | 20036 ft | 443 kts | 53° |
| 2026-05-06 12:14 | 33.59845 | 132.47171 | 20595 ft | 446 kts | 53° |
| 2026-05-06 12:14 | 33.61596 | 132.50270 | 21098 ft | 450 kts | 53° |
| 2026-05-06 12:14 | 33.63354 | 132.53386 | 21640 ft | 453 kts | 53° |
| 2026-05-06 12:14 | 33.65114 | 132.56503 | 22116 ft | 457 kts | 53° |
| 2026-05-06 12:15 | 33.66896 | 132.59668 | 22536 ft | 463 kts | 52° |
| 2026-05-06 12:15 | 33.68707 | 132.62886 | 23003 ft | 467 kts | 53° |
| 2026-05-06 12:15 | 33.70520 | 132.66112 | 23475 ft | 471 kts | 53° |
| 2026-05-06 12:15 | 33.72367 | 132.69398 | 23951 ft | 475 kts | 53° |
| 2026-05-06 12:16 | 33.74218 | 132.72696 | 24371 ft | 480 kts | 53° |
| 2026-05-06 12:16 | 33.76098 | 132.76047 | 24743 ft | 486 kts | 53° |
| 2026-05-06 12:16 | 33.77967 | 132.79388 | 25254 ft | 489 kts | 53° |
| 2026-05-06 12:16 | 33.79890 | 132.82829 | 25644 ft | 494 kts | 53° |
| 2026-05-06 12:17 | 33.81822 | 132.86253 | 26090 ft | 498 kts | 53° |
| 2026-05-06 12:17 | 33.83827 | 132.89603 | 26502 ft | 500 kts | 50° |
| 2026-05-06 12:17 | 33.86116 | 132.92792 | 26813 ft | 503 kts | 43° |
| 2026-05-06 12:17 | 33.88682 | 132.95644 | 27252 ft | 503 kts | 37° |
| 2026-05-06 12:18 | 33.91380 | 132.98254 | 27836 ft | 500 kts | 34° |
| 2026-05-06 12:18 | 33.94192 | 133.00794 | 28202 ft | 503 kts | 34° |
| 2026-05-06 12:18 | 33.96890 | 133.03395 | 28726 ft | 504 kts | 38° |
| 2026-05-06 12:18 | 33.99386 | 133.06441 | 29260 ft | 507 kts | 46° |
| 2026-05-06 12:19 | 34.01496 | 133.09886 | 29564 ft | 515 kts | 56° |
| 2026-05-06 12:19 | 34.03180 | 133.13699 | 29901 ft | 520 kts | 65° |
| 2026-05-06 12:19 | 34.04420 | 133.17792 | 30149 ft | 526 kts | 73° |
| 2026-05-06 12:19 | 34.05322 | 133.22082 | 30547 ft | 528 kts | 78° |
| 2026-05-06 12:20 | 34.06059 | 133.26370 | 31030 ft | 528 kts | 80° |
| 2026-05-06 12:20 | 34.06759 | 133.30699 | 31482 ft | 529 kts | 80° |
| 2026-05-06 12:20 | 34.07488 | 133.35074 | 31680 ft | 536 kts | 79° |
| 2026-05-06 12:20 | 34.08260 | 133.39456 | 31929 ft | 540 kts | 79° |
| 2026-05-06 12:21 | 34.09087 | 133.43869 | 32449 ft | 539 kts | 79° |
| 2026-05-06 12:21 | 34.09960 | 133.48209 | 32985 ft | 537 kts | 78° |
| 2026-05-06 12:21 | 34.10876 | 133.52593 | 33556 ft | 534 kts | 78° |
| 2026-05-06 12:21 | 34.11788 | 133.56895 | 33905 ft | 537 kts | 78° |
| 2026-05-06 12:22 | 34.12719 | 133.61295 | 34175 ft | 540 kts | 78° |
| 2026-05-06 12:22 | 34.13637 | 133.65642 | 34581 ft | 541 kts | 78° |
| 2026-05-06 12:22 | 34.14564 | 133.70013 | 35174 ft | 537 kts | 78° |
| 2026-05-06 12:22 | 34.15486 | 133.74371 | 35850 ft | 531 kts | 78° |
| 2026-05-06 12:23 | 34.16398 | 133.78696 | 36348 ft | 529 kts | 78° |
| 2026-05-06 12:23 | 34.17313 | 133.83046 | 36614 ft | 531 kts | 78° |
| 2026-05-06 12:23 | 34.18203 | 133.87421 | 36723 ft | 536 kts | 79° |
| 2026-05-06 12:23 | 34.19077 | 133.91775 | 36919 ft | 538 kts | 78° |
| 2026-05-06 12:24 | 34.19965 | 133.96143 | 37096 ft | 538 kts | 79° |
| 2026-05-06 12:24 | 34.20876 | 134.00549 | 37096 ft | 535 kts | 79° |
| 2026-05-06 12:24 | 34.22672 | 134.09192 | 37099 ft | 531 kts | 79° |
| 2026-05-06 12:25 | 34.24461 | 134.17833 | 37096 ft | 533 kts | 79° |
| 2026-05-06 12:25 | 34.26185 | 134.26594 | 37094 ft | 532 kts | 81° |
| 2026-05-06 12:26 | 34.27826 | 134.35289 | 37095 ft | 536 kts | 80° |
| 2026-05-06 12:26 | 34.29563 | 134.44058 | 37094 ft | 534 kts | 79° |
| 2026-05-06 12:27 | 34.31348 | 134.52792 | 37095 ft | 539 kts | 79° |
| 2026-05-06 12:27 | 34.33105 | 134.61504 | 37096 ft | 536 kts | 79° |
| 2026-05-06 12:28 | 34.34835 | 134.70312 | 37095 ft | 540 kts | 79° |
| 2026-05-06 12:28 | 34.36555 | 134.79137 | 37094 ft | 538 kts | 79° |
| 2026-05-06 12:29 | 34.38272 | 134.87953 | 37094 ft | 540 kts | 81° |
| 2026-05-06 12:29 | 34.39833 | 134.96848 | 37094 ft | 541 kts | 82° |
| 2026-05-06 12:30 | 34.41230 | 135.05707 | 37095 ft | 538 kts | 83° |
| 2026-05-06 12:30 | 34.42587 | 135.14635 | 37100 ft | 540 kts | 83° |
| 2026-05-06 12:31 | 34.43962 | 135.23561 | 37099 ft | 540 kts | 82° |
| 2026-05-06 12:31 | 34.45423 | 135.32407 | 37101 ft | 541 kts | 82° |
| 2026-05-06 12:32 | 34.46888 | 135.41362 | 37104 ft | 540 kts | 82° |
| 2026-05-06 12:32 | 34.48302 | 135.50270 | 37104 ft | 539 kts | 82° |
| 2026-05-06 12:33 | 34.49671 | 135.59170 | 37106 ft | 540 kts | 83° |
| 2026-05-06 12:33 | 34.51058 | 135.68138 | 37105 ft | 537 kts | 84° |
| 2026-05-06 12:34 | 34.52427 | 135.77035 | 37108 ft | 539 kts | 84° |
| 2026-05-06 12:34 | 34.53817 | 135.85967 | 37108 ft | 539 kts | 83° |
| 2026-05-06 12:35 | 34.55204 | 135.94881 | 37116 ft | 538 kts | 83° |
| 2026-05-06 12:35 | 34.56608 | 136.03773 | 37114 ft | 538 kts | 83° |
| 2026-05-06 12:36 | 34.57988 | 136.12657 | 37114 ft | 538 kts | 83° |
| 2026-05-06 12:36 | 34.59369 | 136.21637 | 37114 ft | 540 kts | 83° |
| 2026-05-06 12:37 | 34.60719 | 136.30568 | 37116 ft | 541 kts | 83° |
| 2026-05-06 12:37 | 34.62072 | 136.39500 | 37113 ft | 538 kts | 82° |
| 2026-05-06 12:38 | 34.63433 | 136.48450 | 37115 ft | 543 kts | 82° |
| 2026-05-06 12:38 | 34.64795 | 136.57460 | 37115 ft | 543 kts | 82° |
| 2026-05-06 12:39 | 34.66141 | 136.66435 | 37112 ft | 540 kts | 84° |
| 2026-05-06 12:39 | 34.67461 | 136.75439 | 37116 ft | 541 kts | 84° |
| 2026-05-06 12:40 | 34.68755 | 136.84375 | 37117 ft | 540 kts | 84° |
| 2026-05-06 12:40 | 34.70002 | 136.93388 | 37115 ft | 542 kts | 85° |
| 2026-05-06 12:41 | 34.70758 | 137.02429 | 37116 ft | 538 kts | 91° |
| 2026-05-06 12:41 | 34.70906 | 137.11470 | 37114 ft | 536 kts | 95° |
| 2026-05-06 12:42 | 34.70884 | 137.20451 | 37115 ft | 530 kts | 95° |
| 2026-05-06 12:42 | 34.70890 | 137.29440 | 37116 ft | 534 kts | 94° |
| 2026-05-06 12:43 | 34.70961 | 137.38413 | 37117 ft | 537 kts | 94° |
| 2026-05-06 12:43 | 34.71062 | 137.47467 | 37119 ft | 534 kts | 94° |
| 2026-05-06 12:44 | 34.71146 | 137.56430 | 37121 ft | 531 kts | 94° |
| 2026-05-06 12:44 | 34.71210 | 137.65456 | 37077 ft | 536 kts | 95° |
| 2026-05-06 12:45 | 34.71238 | 137.69986 | 36699 ft | 535 kts | 96° |
| 2026-05-06 12:45 | 34.71270 | 137.74464 | 36239 ft | 530 kts | 94° |
| 2026-05-06 12:45 | 34.71348 | 137.83319 | 35296 ft | 522 kts | 95° |
| 2026-05-06 12:46 | 34.71389 | 137.87714 | 34834 ft | 524 kts | 95° |
| 2026-05-06 12:46 | 34.71424 | 137.92128 | 34364 ft | 528 kts | 95° |
| 2026-05-06 12:46 | 34.71440 | 137.96616 | 33897 ft | 529 kts | 95° |
| 2026-05-06 12:46 | 34.71450 | 138.01030 | 33439 ft | 525 kts | 96° |
| 2026-05-06 12:47 | 34.71464 | 138.05489 | 33005 ft | 525 kts | 95° |
| 2026-05-06 12:47 | 34.71486 | 138.09917 | 32581 ft | 530 kts | 94° |
| 2026-05-06 12:47 | 34.71504 | 138.14371 | 32156 ft | 533 kts | 94° |
| 2026-05-06 12:47 | 34.71519 | 138.18846 | 31727 ft | 534 kts | 94° |
| 2026-05-06 12:48 | 34.71529 | 138.23337 | 31308 ft | 533 kts | 94° |
| 2026-05-06 12:48 | 34.71545 | 138.27887 | 30883 ft | 535 kts | 94° |
| 2026-05-06 12:48 | 34.71574 | 138.32341 | 30465 ft | 536 kts | 93° |
| 2026-05-06 12:48 | 34.71589 | 138.36897 | 30039 ft | 538 kts | 94° |
| 2026-05-06 12:49 | 34.71596 | 138.41426 | 29618 ft | 540 kts | 94° |
| 2026-05-06 12:49 | 34.71604 | 138.45973 | 29120 ft | 538 kts | 93° |
| 2026-05-06 12:49 | 34.71600 | 138.50468 | 28615 ft | 532 kts | 94° |
| 2026-05-06 12:49 | 34.71592 | 138.54948 | 28099 ft | 526 kts | 94° |
| 2026-05-06 12:50 | 34.71576 | 138.59329 | 27595 ft | 520 kts | 94° |
| 2026-05-06 12:50 | 34.71569 | 138.63718 | 27085 ft | 513 kts | 93° |
| 2026-05-06 12:50 | 34.71569 | 138.68025 | 26575 ft | 507 kts | 94° |
| 2026-05-06 12:50 | 34.71568 | 138.72263 | 26071 ft | 501 kts | 94° |
| 2026-05-06 12:51 | 34.71565 | 138.76430 | 25569 ft | 495 kts | 95° |
| 2026-05-06 12:51 | 34.71564 | 138.80586 | 25062 ft | 489 kts | 94° |
| 2026-05-06 12:51 | 34.71566 | 138.84665 | 24481 ft | 485 kts | 95° |
| 2026-05-06 12:51 | 34.71563 | 138.88722 | 23954 ft | 479 kts | 95° |
| 2026-05-06 12:52 | 34.71553 | 138.92767 | 23344 ft | 477 kts | 95° |
| 2026-05-06 12:52 | 34.71536 | 138.96761 | 22739 ft | 477 kts | 95° |
| 2026-05-06 12:52 | 34.71512 | 139.00851 | 22475 ft | 488 kts | 95° |
| 2026-05-06 12:52 | 34.71483 | 139.04974 | 22175 ft | 494 kts | 95° |
| 2026-05-06 12:53 | 34.71464 | 139.09105 | 21782 ft | 484 kts | 95° |
| 2026-05-06 12:53 | 34.71454 | 139.13144 | 21388 ft | 475 kts | 94° |
| 2026-05-06 12:53 | 34.71621 | 139.17111 | 20942 ft | 471 kts | 86° |
| 2026-05-06 12:53 | 34.72197 | 139.20998 | 20479 ft | 467 kts | 79° |
| 2026-05-06 12:54 | 34.73043 | 139.24806 | 20012 ft | 462 kts | 75° |
| 2026-05-06 12:54 | 34.73985 | 139.28470 | 19550 ft | 457 kts | 73° |
| 2026-05-06 12:54 | 34.74964 | 139.32089 | 19084 ft | 451 kts | 72° |
| 2026-05-06 12:54 | 34.75944 | 139.35718 | 18613 ft | 446 kts | 72° |
| 2026-05-06 12:55 | 34.76877 | 139.39244 | 18149 ft | 440 kts | 73° |
| 2026-05-06 12:55 | 34.77807 | 139.42786 | 17679 ft | 435 kts | 70° |
| 2026-05-06 12:55 | 34.79185 | 139.45979 | 17214 ft | 427 kts | 50° |
| 2026-05-06 12:55 | 34.81164 | 139.48585 | 16748 ft | 418 kts | 40° |
| 2026-05-06 12:56 | 34.83336 | 139.50905 | 16275 ft | 412 kts | 37° |
| 2026-05-06 12:56 | 34.85521 | 139.53139 | 15799 ft | 407 kts | 36° |
| 2026-05-06 12:56 | 34.87663 | 139.55366 | 15326 ft | 402 kts | 38° |
| 2026-05-06 12:56 | 34.89735 | 139.57597 | 14855 ft | 397 kts | 39° |
| 2026-05-06 12:57 | 34.91750 | 139.59833 | 14382 ft | 393 kts | 40° |
| 2026-05-06 12:57 | 34.93761 | 139.62097 | 13903 ft | 388 kts | 40° |
| 2026-05-06 12:57 | 34.95715 | 139.64304 | 13423 ft | 384 kts | 41° |
| 2026-05-06 12:57 | 34.97663 | 139.66502 | 12938 ft | 379 kts | 41° |
| 2026-05-06 12:58 | 34.99585 | 139.68671 | 12454 ft | 375 kts | 41° |
| 2026-05-06 12:58 | 35.01492 | 139.70824 | 11969 ft | 371 kts | 41° |
| 2026-05-06 12:58 | 35.03384 | 139.72957 | 11480 ft | 367 kts | 41° |
| 2026-05-06 12:58 | 35.05248 | 139.75064 | 10974 ft | 360 kts | 41° |
| 2026-05-06 12:59 | 35.07020 | 139.77075 | 10650 ft | 341 kts | 41° |
| 2026-05-06 12:59 | 35.08718 | 139.79001 | 10402 ft | 322 kts | 41° |
| 2026-05-06 12:59 | 35.10307 | 139.80797 | 10127 ft | 307 kts | 41° |
| 2026-05-06 12:59 | 35.11850 | 139.82544 | 9618 ft | 303 kts | 42° |
| 2026-05-06 13:00 | 35.13386 | 139.84285 | 9104 ft | 298 kts | 41° |
| 2026-05-06 13:00 | 35.14899 | 139.85994 | 8570 ft | 295 kts | 41° |
| 2026-05-06 13:00 | 35.16414 | 139.87689 | 7988 ft | 293 kts | 41° |
| 2026-05-06 13:00 | 35.17900 | 139.89354 | 7512 ft | 288 kts | 42° |
| 2026-05-06 13:01 | 35.19358 | 139.91005 | 6948 ft | 286 kts | 43° |
| 2026-05-06 13:01 | 35.20788 | 139.92627 | 6442 ft | 282 kts | 42° |
| 2026-05-06 13:01 | 35.22226 | 139.94258 | 5942 ft | 277 kts | 43° |
| 2026-05-06 13:01 | 35.23640 | 139.95816 | 5451 ft | 273 kts | 39° |
| 2026-05-06 13:02 | 35.25234 | 139.97028 | 5039 ft | 265 kts | 18° |
| 2026-05-06 13:02 | 35.26973 | 139.97214 | 5016 ft | 242 kts | 345° |
| 2026-05-06 13:02 | 35.28470 | 139.96471 | 4975 ft | 225 kts | 325° |
| 2026-05-06 13:02 | 35.29776 | 139.95489 | 4989 ft | 222 kts | 324° |
| 2026-05-06 13:03 | 35.31116 | 139.94473 | 4988 ft | 225 kts | 325° |
| 2026-05-06 13:03 | 35.32453 | 139.93494 | 4919 ft | 226 kts | 326° |
| 2026-05-06 13:03 | 35.33841 | 139.92519 | 4573 ft | 232 kts | 327° |
| 2026-05-06 13:03 | 35.35252 | 139.91531 | 4228 ft | 235 kts | 327° |
| 2026-05-06 13:04 | 35.36667 | 139.90536 | 3899 ft | 236 kts | 327° |
| 2026-05-06 13:04 | 35.38100 | 139.89526 | 3565 ft | 238 kts | 327° |
| 2026-05-06 13:04 | 35.39539 | 139.88512 | 3230 ft | 240 kts | 327° |
| 2026-05-06 13:04 | 35.40991 | 139.87491 | 2901 ft | 241 kts | 328° |
| 2026-05-06 13:05 | 35.42443 | 139.86470 | 2558 ft | 241 kts | 328° |
| 2026-05-06 13:05 | 35.43837 | 139.85490 | 2266 ft | 219 kts | 328° |
| 2026-05-06 13:05 | 35.45105 | 139.84602 | 1965 ft | 200 kts | 327° |
| 2026-05-06 13:05 | 35.46256 | 139.83791 | 1695 ft | 185 kts | 327° |
| 2026-05-06 13:06 | 35.47328 | 139.83032 | 1492 ft | 177 kts | 327° |
| 2026-05-06 13:06 | 35.48381 | 139.82288 | 1230 ft | 172 kts | 328° |
| 2026-05-06 13:06 | 35.49415 | 139.81557 | 1003 ft | 171 kts | 329° |
| 2026-05-06 13:06 | 35.50406 | 139.80859 | 790 ft | 158 kts | 329° |
| 2026-05-06 13:07 | 35.51339 | 139.80199 | 597 ft | 152 kts | 329° |
| 2026-05-06 13:07 | 35.52251 | 139.79565 | 351 ft | 151 kts | 329° |
| 2026-05-06 13:07 | 35.53145 | 139.78932 | 156 ft | 147 kts | 328° |
| 2026-05-06 13:07 | 35.54028 | 139.78304 | 22 ft | 139 kts | 329° |
| 2026-05-06 13:08 | 35.54744 | 139.77788 | 27 ft | 92 kts | 331° |
| 2026-05-06 13:08 | 35.55135 | 139.77518 | 30 ft | 41 kts | 336° |
| 2026-05-06 13:08 | 35.55300 | 139.77457 | 29 ft | 14 kts | 351° |
| 2026-05-06 13:08 | 35.55359 | 139.77446 | 31 ft | 2 kts | 352° |
| 2026-05-06 13:09 | 35.55358 | 139.77446 | 31 ft | 0 kts | 352° |
| 2026-05-06 13:09 | 35.55466 | 139.77437 | 36 ft | 20 kts | 359° |
| 2026-05-06 13:09 | 35.55558 | 139.77438 | 39 ft | 5 kts | 15° |
| 2026-05-06 13:09 | 35.55564 | 139.77455 | 39 ft | 1 kts | 99° |
| 2026-05-06 13:10 | 35.55552 | 139.77473 | 39 ft | 4 kts | 137° |
| 2026-05-06 13:10 | 35.55519 | 139.77502 | 38 ft | 7 kts | 149° |
| 2026-05-06 13:10 | 35.55471 | 139.77536 | 37 ft | 8 kts | 151° |
| 2026-05-06 13:10 | 35.55418 | 139.77573 | 36 ft | 8 kts | 150° |
| 2026-05-06 13:11 | 35.55349 | 139.77622 | 37 ft | 16 kts | 149° |
| 2026-05-06 13:11 | 35.55223 | 139.77712 | 39 ft | 25 kts | 150° |
| 2026-05-06 13:11 | 35.55053 | 139.77834 | 28 ft | 31 kts | 150° |
| 2026-05-06 13:11 | 35.54886 | 139.77951 | 19 ft | 18 kts | 150° |
| 2026-05-06 13:12 | 35.54767 | 139.78035 | 13 ft | 21 kts | 150° |
| 2026-05-06 13:12 | 35.54635 | 139.78128 | 4 ft | 22 kts | 152° |
| 2026-05-06 13:12 | 35.54543 | 139.78191 | 4 ft | 0 kts | 149° |
| 2026-05-06 13:12 | 35.54541 | 139.78192 | 4 ft | 4 kts | 136° |
| 2026-05-06 13:13 | 35.54538 | 139.78206 | 4 ft | 0 kts | 45° |
| 2026-05-06 13:13 | 35.54565 | 139.78217 | 4 ft | 4 kts | 19° |
| 2026-05-06 13:13 | 35.54584 | 139.78235 | 5 ft | 3 kts | 62° |
| 2026-05-06 13:13 | 35.54589 | 139.78252 | 7 ft | 2 kts | 77° |
| 2026-05-06 13:14 | 35.54591 | 139.78301 | 10 ft | 8 kts | 90° |
| 2026-05-06 13:14 | 35.54591 | 139.78380 | 14 ft | 6 kts | 90° |
| 2026-05-06 13:14 | 35.54591 | 139.78418 | 17 ft | 4 kts | 91° |
| 2026-05-06 13:14 | 35.54590 | 139.78458 | 18 ft | 3 kts | 90° |
| 2026-05-06 13:15 | 35.54590 | 139.78468 | 18 ft | 0 kts | 90° |
| 2026-05-06 13:15 | 35.54590 | 139.78476 | 19 ft | 0 kts | 90° |
| 2026-05-06 13:15 | 35.54590 | 139.78477 | 19 ft | 0 kts | 90° |